Terminal Aerodrome Forecast
Issued by NWS

Home | Current Version | Previous Version | Text Only | Print | Product List | Glossary On
Versions: 1 2 3 4 5 6 7 8 9 10 11 12 13
000
FTUS44 KEPZ 050546
TAFTCS
TAF
KTCS 050546Z 0506/0606 31007KT P6SM -SHRA BKN080 BKN150
     FM050800 32007KT P6SM SCT080 BKN250
     FM051900 20013KT P6SM SCT100 BKN150=

USA.gov is the U.S. government's official web portal to all federal, state and local government web resources and services.